createdAt,value
2016-04-05T00:00:39.793Z,998.64
2016-04-05T00:01:39.764Z,998.62
2016-04-05T00:02:39.766Z,998.6
2016-04-05T00:03:39.722Z,998.56
2016-04-05T00:04:39.710Z,998.59
2016-04-05T00:05:39.682Z,998.58
2016-04-05T00:06:39.652Z,998.62
2016-04-05T00:07:39.641Z,998.54
2016-04-05T00:08:39.611Z,998.47
2016-04-05T00:09:39.599Z,998.46
2016-04-05T00:10:39.570Z,998.43
2016-04-05T00:11:39.541Z,998.43
2016-04-05T00:12:39.513Z,998.38
2016-04-05T00:13:39.499Z,998.36
2016-04-05T00:14:39.471Z,998.33
2016-04-05T00:15:39.458Z,998.31
2016-04-05T00:16:39.461Z,998.32
2016-04-05T00:17:39.432Z,998.3
2016-04-05T00:18:39.387Z,998.25
2016-04-05T00:19:39.376Z,998.25
2016-04-05T00:20:39.347Z,998.2
2016-04-05T00:21:39.318Z,998.14
2016-04-05T00:22:39.321Z,998.09
2016-04-05T00:23:39.276Z,998.07
2016-04-05T00:24:39.358Z,998.08
2016-04-05T00:25:39.235Z,998.11
2016-04-05T00:26:39.253Z,998.12
2016-04-05T00:27:39.194Z,998.14
2016-04-05T00:28:39.181Z,998.15
2016-04-05T00:29:39.137Z,998.17
2016-04-05T00:30:39.124Z,998.16
2016-04-05T00:31:39.095Z,998.11
2016-04-05T00:32:39.083Z,998.09
2016-04-05T00:33:39.054Z,998.08
2016-04-05T00:34:39.244Z,998.01
2016-04-05T00:35:39.028Z,998.01
2016-04-05T00:36:38.983Z,997.99
2016-04-05T00:37:38.971Z,998.01
2016-04-05T00:38:38.941Z,997.97
2016-04-05T00:39:38.929Z,997.97
2016-04-05T00:40:38.901Z,998
2016-04-05T00:41:38.872Z,998.03
2016-04-05T00:42:38.875Z,997.96
2016-04-05T00:43:38.846Z,997.95
2016-04-05T00:44:38.802Z,997.9
2016-04-05T00:45:38.789Z,997.89
2016-04-05T00:46:38.776Z,997.88
2016-04-05T00:47:38.748Z,997.94
2016-04-05T00:48:38.718Z,997.94
2016-04-05T00:49:38.690Z,997.93
2016-04-05T00:50:38.677Z,998.03
2016-04-05T00:51:38.664Z,998.01
2016-04-05T00:52:38.636Z,997.98
2016-04-05T00:53:38.606Z,998.04
2016-04-05T00:54:38.610Z,998.02
2016-04-05T00:55:38.566Z,998.01
2016-04-05T00:56:38.553Z,997.99
2016-04-05T00:57:38.525Z,997.99
2016-04-05T00:58:38.495Z,997.93
2016-04-05T00:59:38.467Z,997.92
2016-04-05T01:00:38.454Z,997.9
2016-04-05T01:01:38.425Z,997.92
2016-04-05T01:02:38.397Z,997.95
2016-04-05T01:03:38.384Z,998.01
2016-04-05T01:04:38.372Z,998.05
2016-04-05T01:05:38.344Z,998.02
2016-04-05T01:06:38.314Z,998.04
2016-04-05T01:07:38.286Z,998.07
2016-04-05T01:08:38.351Z,998.04
2016-04-05T01:09:38.244Z,998.06
2016-04-05T01:10:38.216Z,998.07
2016-04-05T01:11:38.234Z,998.08
2016-04-05T01:12:38.190Z,998.06
2016-04-05T01:13:38.176Z,998.04
2016-04-05T01:14:38.132Z,998.09
2016-04-05T01:15:38.120Z,998.09
2016-04-05T01:16:38.106Z,998.1
2016-04-05T01:17:38.078Z,998.05
2016-04-05T01:18:38.065Z,998.03
2016-04-05T01:19:38.037Z,998.01
2016-04-05T01:20:38.009Z,998
2016-04-05T01:21:37.979Z,997.99
2016-04-05T01:22:37.951Z,997.96
2016-04-05T01:23:37.937Z,997.96
2016-04-05T01:24:37.909Z,997.9
2016-04-05T01:25:37.897Z,997.86
2016-04-05T01:26:37.852Z,997.84
2016-04-05T01:27:37.839Z,997.84
2016-04-05T01:28:37.826Z,997.86
2016-04-05T01:29:37.813Z,997.9
2016-04-05T01:30:37.785Z,997.87
2016-04-05T01:31:37.756Z,997.85
2016-04-05T01:32:37.744Z,997.81
2016-04-05T01:33:37.715Z,997.83
2016-04-05T01:34:37.686Z,997.83
2016-04-05T01:35:37.658Z,997.83
2016-04-05T01:36:37.644Z,997.88
2016-04-05T01:37:37.616Z,997.87
2016-04-05T01:38:37.603Z,997.81
2016-04-05T01:39:37.574Z,997.84
2016-04-05T01:40:37.563Z,997.79
2016-04-05T01:41:37.533Z,997.78
2016-04-05T01:42:37.505Z,997.76
2016-04-05T01:43:37.524Z,997.68
2016-04-05T01:44:37.604Z,997.69
2016-04-05T01:45:37.455Z,997.68
2016-04-05T01:46:37.558Z,997.68
2016-04-05T01:47:37.389Z,997.68
2016-04-05T01:48:37.954Z,997.65
2016-04-05T01:49:37.385Z,997.71
2016-04-05T01:50:37.326Z,997.66
2016-04-05T01:51:37.297Z,997.66
2016-04-05T01:52:37.268Z,997.65
2016-04-05T01:53:37.256Z,997.62
2016-04-05T01:54:37.242Z,997.63
2016-04-05T01:55:37.215Z,997.6
2016-04-05T01:56:37.186Z,997.59
2016-04-05T01:57:37.173Z,997.59
2016-04-05T01:58:37.128Z,997.57
2016-04-05T01:59:37.131Z,997.57
2016-04-05T02:00:37.103Z,997.61
2016-04-05T02:01:37.075Z,997.61
2016-04-05T02:02:37.108Z,997.67
2016-04-05T02:03:37.033Z,997.7
2016-04-05T02:04:37.020Z,997.66
2016-04-05T02:05:37.007Z,997.69
2016-04-05T02:06:36.964Z,997.67
2016-04-05T02:07:36.966Z,997.65
2016-04-05T02:08:36.927Z,997.64
2016-04-05T02:09:36.898Z,997.59
2016-04-05T02:10:36.869Z,997.59
2016-04-05T02:11:36.872Z,997.55
2016-04-05T02:12:36.827Z,997.51
2016-04-05T02:13:36.940Z,997.49
2016-04-05T02:14:36.786Z,997.5
2016-04-05T02:15:36.773Z,997.52
2016-04-05T02:16:36.744Z,997.52
2016-04-05T02:17:36.715Z,997.52
2016-04-05T02:18:36.687Z,997.45
2016-04-05T02:19:36.674Z,997.48
2016-04-05T02:20:36.662Z,997.48
2016-04-05T02:21:36.618Z,997.48
2016-04-05T02:22:36.620Z,997.48
2016-04-05T10:47:59.010Z,997.62
2016-04-05T10:48:58.950Z,997.6
2016-04-05T10:49:58.938Z,997.6
2016-04-05T10:50:59.080Z,997.62
2016-04-05T10:51:58.896Z,997.64
2016-04-05T10:52:58.899Z,997.64
2016-04-05T10:53:58.932Z,997.66
2016-04-05T10:54:59.451Z,997.65
2016-04-05T10:55:58.812Z,997.61
2016-04-05T10:56:58.800Z,997.6
2016-04-05T10:57:58.771Z,997.63
2016-04-05T10:58:58.743Z,997.6
2016-04-05T11:00:58.702Z,997.61
2016-04-05T11:01:58.673Z,997.62
2016-04-05T11:02:58.660Z,997.58
2016-04-05T11:03:58.631Z,997.54
2016-04-05T11:04:58.650Z,997.61
2016-04-05T11:06:58.671Z,997.6
2016-04-05T11:07:58.707Z,997.59
2016-04-05T11:08:58.548Z,997.61
2016-04-05T11:09:58.505Z,997.58
2016-04-05T11:10:58.492Z,997.6
2016-04-05T11:13:58.484Z,997.58
2016-04-05T11:14:58.440Z,997.56
2016-04-05T11:15:58.568Z,997.58
2016-04-05T11:16:58.352Z,997.55
2016-04-05T11:18:58.342Z,997.58
2016-04-05T11:19:58.282Z,997.53
2016-04-05T11:20:58.269Z,997.54
2016-04-05T11:21:58.506Z,997.58
2016-04-05T11:22:58.618Z,997.55
2016-04-05T11:24:58.233Z,997.56
2016-04-05T11:25:58.172Z,997.59
2016-04-05T11:26:58.582Z,997.58
2016-04-05T11:27:58.288Z,997.59
2016-04-05T11:28:58.088Z,997.61
2016-04-05T11:30:58.077Z,997.67
2016-04-05T11:31:58.049Z,997.65
2016-04-05T11:32:58.020Z,997.64
2016-04-05T11:33:57.991Z,997.69
2016-04-05T11:34:57.979Z,997.68
2016-04-05T11:35:57.950Z,997.68
2016-04-05T11:36:57.905Z,997.67
2016-04-05T11:37:57.940Z,997.68
2016-04-05T11:38:57.864Z,997.66
2016-04-05T11:39:57.851Z,997.69
2016-04-05T11:41:57.793Z,997.64
2016-04-05T11:42:57.875Z,997.69
2016-04-05T11:43:57.783Z,997.71
2016-04-05T11:44:57.739Z,997.75
2016-04-05T11:45:57.742Z,997.75
2016-04-05T11:46:57.697Z,997.74
2016-04-05T11:47:57.670Z,997.75
2016-04-05T11:48:57.766Z,997.73
2016-04-05T11:49:57.628Z,997.75
2016-04-05T11:50:57.630Z,997.78
2016-04-05T11:52:00.615Z,997.76
2016-04-05T11:52:57.563Z,997.71
2016-04-05T12:00:30.023Z,997.81
2016-04-05T12:01:30.006Z,997.77
2016-04-05T12:02:30.008Z,997.75
2016-04-05T12:03:29.963Z,997.77
2016-04-05T12:04:29.917Z,997.79
2016-04-05T12:06:29.921Z,997.8
2016-04-05T12:07:29.861Z,997.83
2016-04-05T12:08:29.847Z,997.82
2016-04-05T12:09:29.818Z,997.83
2016-04-05T12:10:29.789Z,997.82
2016-04-05T12:11:29.792Z,997.85
2016-04-05T12:12:29.951Z,997.84
2016-04-05T12:13:29.734Z,997.86
2016-04-05T12:14:29.706Z,997.85
2016-04-05T12:15:29.693Z,997.83
2016-04-05T12:16:29.711Z,997.86
2016-04-05T12:17:29.714Z,997.83
2016-04-05T12:18:29.873Z,997.86
2016-04-05T12:19:29.595Z,997.89
2016-04-05T12:20:30.566Z,997.92
2016-04-05T12:21:29.725Z,997.91
2016-04-05T12:22:29.540Z,997.88
2016-04-05T12:23:29.589Z,997.85
2016-04-05T12:24:29.936Z,997.86
2016-04-05T12:25:29.517Z,997.86
2016-04-05T12:26:29.551Z,997.86
2016-04-05T12:27:29.429Z,997.89
2016-04-05T12:28:29.462Z,997.93
2016-04-05T12:29:29.638Z,997.91
2016-04-05T12:30:29.374Z,997.94
2016-04-05T12:31:29.393Z,997.95
2016-04-05T12:32:29.317Z,997.93
2016-04-05T12:33:29.288Z,997.97
2016-04-05T12:34:29.275Z,997.98
2016-04-05T12:35:29.246Z,997.99
2016-04-05T12:36:29.546Z,997.95
2016-04-05T12:37:29.284Z,997.98
2016-04-05T12:38:29.193Z,997.94
2016-04-05T12:39:29.149Z,997.93
2016-04-05T12:40:29.135Z,997.94
2016-04-05T12:41:29.106Z,997.95
2016-04-05T12:42:29.094Z,997.89
2016-04-05T12:43:29.300Z,997.97
2016-04-05T12:44:29.053Z,997.95
2016-04-05T12:45:29.024Z,997.98
2016-04-05T12:46:29.105Z,997.93
2016-04-05T12:47:29.013Z,997.95
2016-04-05T12:48:29.032Z,997.96
2016-04-05T12:49:29.192Z,997.94
2016-04-05T12:50:29.194Z,997.95
2016-04-05T12:51:28.884Z,997.98
2016-04-05T12:52:28.965Z,997.98
2016-04-05T12:53:28.999Z,997.98
2016-04-05T12:54:28.845Z,997.97
2016-04-05T12:55:28.832Z,997.99
2016-04-05T12:56:28.819Z,998.01
2016-04-05T12:57:28.774Z,998.01
2016-04-05T12:58:28.747Z,998.05
2016-04-05T12:59:28.733Z,998.01
2016-04-05T13:00:28.688Z,998.03
2016-04-05T13:01:28.738Z,998.06
2016-04-05T13:02:28.773Z,998.08
2016-04-05T13:03:28.618Z,998.12
2016-04-05T13:04:28.606Z,998.13
2016-04-05T13:05:28.593Z,998.13
2016-04-05T13:06:28.564Z,998.09
2016-04-05T13:07:28.582Z,998.14
2016-04-05T13:08:28.524Z,998.15
2016-04-05T13:09:28.495Z,998.15
2016-04-05T13:10:28.466Z,998.2
2016-04-05T13:11:28.453Z,998.18
2016-04-05T13:12:28.425Z,998.18
2016-04-05T13:13:28.396Z,998.23
2016-04-05T13:14:28.384Z,998.23
2016-04-05T13:15:28.495Z,998.25
2016-04-05T13:16:28.513Z,998.23
2016-04-05T13:17:28.329Z,998.23
2016-04-05T13:18:28.300Z,998.24
2016-04-05T13:19:28.303Z,998.22
2016-04-05T13:20:28.274Z,998.25
2016-04-05T13:21:28.355Z,998.24
2016-04-05T13:22:28.295Z,998.22
2016-04-05T13:23:28.220Z,998.28
2016-04-05T13:24:28.175Z,998.24
2016-04-05T13:25:28.147Z,998.27
2016-04-05T13:26:28.118Z,998.28
2016-04-05T13:27:28.091Z,998.28
2016-04-05T13:28:28.077Z,998.25
2016-04-05T13:29:28.063Z,998.31
2016-04-05T13:30:28.066Z,998.33
2016-04-05T13:31:28.054Z,998.33
2016-04-05T13:32:27.994Z,998.38
2016-04-05T13:33:28.091Z,998.38
2016-04-05T13:34:28.109Z,998.35
2016-04-05T13:35:28.033Z,998.34
2016-04-05T13:36:27.911Z,998.35
2016-04-05T13:37:27.882Z,998.34
2016-04-05T13:38:27.854Z,998.38
2016-04-05T13:39:27.825Z,998.34
2016-04-05T13:40:27.813Z,998.37
2016-04-05T13:41:28.299Z,998.34
2016-04-05T13:42:27.771Z,998.36
2016-04-05T13:43:27.773Z,998.39
2016-04-05T13:44:28.026Z,998.42
2016-04-05T13:45:27.717Z,998.41
2016-04-05T13:46:27.813Z,998.42
2016-04-05T13:47:27.723Z,998.46
2016-04-05T13:48:27.647Z,998.54
2016-04-05T13:49:27.650Z,998.55
2016-04-05T13:50:27.573Z,998.53
2016-04-05T13:51:27.576Z,998.64
2016-04-05T13:52:27.750Z,998.61
2016-04-05T13:53:27.582Z,998.63
2016-04-05T13:54:27.491Z,998.62
2016-04-05T13:55:27.478Z,998.64
2016-04-05T13:57:27.592Z,998.71
2016-04-05T13:58:27.424Z,998.7
2016-04-05T13:59:27.426Z,998.73
2016-04-05T14:00:27.350Z,998.72
2016-04-05T14:01:27.338Z,998.72
2016-04-05T14:02:27.356Z,998.74
2016-04-05T14:03:27.327Z,998.79
2016-04-05T14:04:27.268Z,998.78
2016-04-05T14:05:27.285Z,998.79
2016-04-05T14:06:27.226Z,998.81
2016-04-05T14:07:27.229Z,998.79
2016-04-05T14:08:27.247Z,998.84
2016-04-05T14:09:27.187Z,998.87
2016-04-05T14:10:27.221Z,998.88
2016-04-05T14:11:27.130Z,998.95
2016-04-05T14:12:27.101Z,998.91
2016-04-05T14:13:27.135Z,998.93
2016-04-05T14:14:27.044Z,998.94
2016-04-05T14:15:27.032Z,998.95
2016-04-05T14:16:26.987Z,998.99
2016-04-05T14:17:26.990Z,999.01
2016-04-05T14:18:26.961Z,998.98
2016-04-05T14:19:26.964Z,998.98
2016-04-05T14:20:26.950Z,998.98
2016-04-05T14:21:26.891Z,999
2016-04-05T14:22:26.925Z,999.01
2016-04-05T14:23:27.084Z,999
2016-04-05T14:25:26.871Z,999.08
2016-04-05T14:26:26.780Z,999.08
2016-04-05T14:27:26.782Z,999.04
2016-04-05T14:28:26.754Z,999.08
2016-04-05T14:29:26.710Z,999.15
2016-04-05T14:30:26.728Z,999.11
2016-04-05T14:31:26.715Z,999.11
2016-04-05T14:33:26.705Z,999.15
2016-04-05T14:34:26.707Z,999.13
2016-04-05T14:35:26.773Z,999.16
2016-04-05T14:36:26.604Z,999.14
2016-04-05T14:37:26.560Z,999.14
2016-04-05T14:38:26.610Z,999.16
2016-04-05T14:39:26.580Z,999.16
2016-04-05T14:40:26.474Z,999.17
2016-04-05T14:41:26.460Z,999.23
2016-04-05T14:42:26.432Z,999.23
2016-04-05T14:43:26.575Z,999.24
2016-04-05T14:44:26.407Z,999.3
2016-04-05T14:45:26.378Z,999.26
2016-04-05T14:46:26.553Z,999.25
2016-04-05T14:47:26.789Z,999.23
2016-04-05T14:48:26.292Z,999.28
2016-04-05T14:49:26.295Z,999.29
2016-04-05T14:50:26.267Z,999.27
2016-04-05T14:51:26.332Z,999.26
2016-04-05T14:52:26.225Z,999.27
2016-04-05T14:53:26.212Z,999.28
2016-04-05T14:54:26.152Z,999.28
2016-04-05T14:55:26.123Z,999.3
2016-04-05T14:56:26.094Z,999.36
2016-04-05T14:57:26.083Z,999.33
2016-04-05T14:58:26.085Z,999.31
2016-04-05T14:59:26.056Z,999.33
2016-04-05T15:00:26.012Z,999.31
2016-04-05T15:01:26.108Z,999.31
2016-04-05T15:02:25.955Z,999.35
2016-04-05T15:03:26.129Z,999.35
2016-04-05T15:04:26.022Z,999.36
2016-04-05T15:05:25.915Z,999.4
2016-04-05T15:06:26.152Z,999.42
2016-04-05T15:07:26.109Z,999.39
2016-04-05T15:08:25.971Z,999.44
2016-04-05T15:09:25.833Z,999.4
2016-04-05T15:10:26.038Z,999.46
2016-04-05T15:11:25.807Z,999.42
2016-04-05T15:12:25.748Z,999.48
2016-04-05T15:13:25.782Z,999.49
2016-04-05T15:14:25.768Z,999.46
2016-04-05T15:15:25.662Z,999.48
2016-04-05T15:16:25.664Z,999.54
2016-04-05T15:17:25.636Z,999.55
2016-04-05T15:18:25.888Z,999.53
2016-04-05T15:19:25.641Z,999.57
2016-04-05T15:20:25.628Z,999.55
2016-04-05T15:21:25.568Z,999.58
2016-04-05T15:22:25.571Z,999.6
2016-04-05T15:23:25.528Z,999.59
2016-04-05T15:24:25.514Z,999.63
2016-04-05T15:25:25.454Z,999.61
2016-04-05T15:26:25.581Z,999.66
2016-04-05T15:27:25.397Z,999.67
2016-04-05T15:28:25.836Z,999.67
2016-04-05T15:29:25.386Z,999.68
2016-04-05T15:30:25.342Z,999.65
2016-04-05T15:31:25.408Z,999.7
2016-04-05T15:32:25.302Z,999.71
2016-04-05T15:33:25.272Z,999.69
2016-04-05T15:34:25.260Z,999.7
2016-04-05T15:35:25.230Z,999.73
2016-04-05T15:36:25.202Z,999.75
2016-04-05T15:37:25.174Z,999.74
2016-04-05T15:38:25.160Z,999.73
2016-04-05T15:39:25.163Z,999.76
2016-04-05T15:40:25.119Z,999.77
2016-04-05T15:41:25.357Z,999.78
2016-04-05T15:42:25.079Z,999.8
2016-04-05T15:43:25.127Z,999.8
2016-04-05T15:44:25.115Z,999.81
2016-04-05T15:45:25.040Z,999.82
2016-04-05T15:46:25.385Z,999.82
2016-04-05T15:47:24.951Z,999.81
2016-04-05T15:48:25.141Z,999.82
2016-04-05T15:49:24.926Z,999.84
2016-04-05T15:50:24.881Z,999.84
2016-04-05T15:51:24.868Z,999.85
2016-04-05T15:52:24.840Z,999.85
2016-04-05T15:53:24.842Z,999.89
2016-04-05T15:54:24.798Z,999.88
2016-04-05T15:56:24.787Z,999.9
2016-04-05T15:57:24.759Z,999.88
2016-04-05T15:58:24.715Z,999.98
2016-04-05T15:59:24.702Z,999.99
2016-04-05T16:00:24.658Z,1000
2016-04-05T16:01:24.660Z,1000
2016-04-05T16:02:24.647Z,1000.01
2016-04-05T16:03:24.603Z,1000.01
2016-04-05T16:04:24.574Z,1000.06
2016-04-05T16:05:24.561Z,1000.02
2016-04-05T16:06:24.549Z,1000.02
2016-04-05T16:07:24.536Z,1000.09
2016-04-05T16:08:24.507Z,1000.08
2016-04-05T16:09:24.463Z,1000.14
2016-04-05T16:10:24.450Z,1000.13
2016-04-05T16:11:24.452Z,1000.11
2016-04-05T16:12:24.455Z,1000.11
2016-04-05T16:13:24.427Z,1000.12
2016-04-05T16:14:24.367Z,1000.16
2016-04-05T16:15:24.385Z,1000.14
2016-04-05T16:16:24.748Z,1000.21
2016-04-05T16:17:24.515Z,1000.23
2016-04-05T16:19:24.256Z,1000.2
2016-04-05T16:20:24.211Z,1000.28
2016-04-05T16:21:24.229Z,1000.29
2016-04-05T16:22:24.170Z,1000.25
2016-04-05T16:23:24.282Z,1000.24
2016-04-05T16:24:24.175Z,1000.28
2016-04-05T16:25:24.100Z,1000.26
2016-04-05T16:26:24.322Z,1000.31
2016-04-05T16:27:24.402Z,1000.3
2016-04-05T16:28:24.045Z,1000.32
2016-04-05T16:29:24.017Z,1000.31
2016-04-05T16:30:24.941Z,1000.32
2016-04-05T16:31:24.006Z,1000.31
2016-04-05T16:32:23.978Z,1000.3
2016-04-05T16:33:23.918Z,1000.29
2016-04-05T16:34:23.889Z,1000.28
2016-04-05T16:35:23.892Z,1000.29
2016-04-05T16:36:23.848Z,1000.28
2016-04-05T16:37:23.819Z,1000.24
2016-04-05T16:38:23.807Z,1000.24
2016-04-05T16:39:23.841Z,1000.23
2016-04-05T16:40:23.780Z,1000.26
2016-04-05T16:41:23.771Z,1000.24
2016-04-05T16:42:23.726Z,1000.23
2016-04-05T16:43:23.776Z,1000.24
2016-04-05T16:45:23.656Z,1000.27
2016-04-05T16:46:23.643Z,1000.28
2016-04-05T16:47:23.646Z,1000.25
2016-04-05T16:48:23.648Z,1000.28
2016-04-05T16:49:23.604Z,1000.25
2016-04-05T16:50:23.592Z,1000.23
2016-04-05T16:51:23.501Z,1000.17
2016-04-05T16:52:23.534Z,1000.13
2016-04-05T16:53:23.475Z,1000.16
2016-04-05T16:54:23.509Z,1000.14
2016-04-05T16:55:23.449Z,1000.15
2016-04-05T16:56:23.592Z,1000.11
2016-04-05T16:57:23.611Z,1000.13
2016-04-05T16:58:23.394Z,1000.13
2016-04-05T16:59:23.694Z,1000.13
2016-04-05T17:00:23.462Z,1000.13
2016-04-05T17:01:23.278Z,1000.08
2016-04-05T17:02:23.312Z,1000.05
2016-04-05T17:03:23.236Z,1000.13
2016-04-05T17:04:23.223Z,1000.06
2016-04-05T17:05:23.178Z,1000.1
2016-04-05T17:06:23.213Z,1000.09
2016-04-05T17:07:23.138Z,1000.05
2016-04-05T17:08:23.108Z,1000.08
2016-04-05T17:09:23.097Z,1000.02
2016-04-05T17:10:23.067Z,1000.02
2016-04-05T17:11:23.055Z,1000.05
2016-04-05T17:12:23.027Z,1000.11
2016-04-05T17:13:22.997Z,1000.11
2016-04-05T17:14:22.985Z,1000.1
2016-04-05T17:15:22.955Z,1000.09
2016-04-05T17:16:22.943Z,1000.06
2016-04-05T17:17:22.914Z,1000.05
2016-04-05T17:18:22.901Z,1000.09
2016-04-05T17:19:22.888Z,1000.11
2016-04-05T17:20:22.859Z,1000.13
2016-04-05T17:21:22.816Z,1000.13
2016-04-05T17:22:22.818Z,1000.19
2016-04-05T17:23:22.837Z,1000.26
2016-04-05T17:24:22.776Z,1000.3
2016-04-05T17:25:22.764Z,1000.35
2016-04-05T17:26:22.735Z,1000.33
2016-04-05T17:27:22.723Z,1000.34
2016-04-05T17:28:22.662Z,1000.34
2016-04-05T17:29:22.665Z,1000.36
2016-04-05T17:30:22.620Z,1000.37
2016-04-05T17:31:22.592Z,1000.34
2016-04-05T17:32:22.564Z,1000.41
2016-04-05T17:33:22.536Z,1000.45
2016-04-05T17:34:22.522Z,1000.46
2016-04-05T17:35:22.556Z,1000.47
2016-04-05T17:36:22.512Z,1000.46
2016-04-05T17:37:22.468Z,1000.44
2016-04-05T17:38:22.425Z,1000.49
2016-04-05T17:39:22.427Z,1000.56
2016-04-05T17:40:22.398Z,1000.51
2016-04-05T17:41:22.369Z,1000.54
2016-04-05T17:42:22.388Z,1000.52
2016-04-05T17:43:22.313Z,1000.51
2016-04-05T17:44:22.721Z,1000.5
2016-04-05T17:45:22.255Z,1000.56
2016-04-05T17:46:22.242Z,1000.54
2016-04-05T17:47:22.230Z,1000.54
2016-04-05T17:48:22.248Z,1000.57
2016-04-05T17:49:22.188Z,1000.57
2016-04-05T17:50:22.143Z,1000.55
2016-04-05T17:51:22.162Z,1000.58
2016-04-05T17:52:22.337Z,1000.6
2016-04-05T17:53:22.089Z,1000.6
2016-04-05T17:54:22.076Z,1000.58
2016-04-05T17:55:22.109Z,1000.62
2016-04-05T17:56:22.065Z,1000.59
2016-04-05T17:57:22.209Z,1000.61
2016-04-05T17:58:21.993Z,1000.6
2016-04-05T17:59:22.278Z,1000.55
2016-04-05T18:00:21.936Z,1000.52
2016-04-05T18:01:21.954Z,1000.56
2016-04-05T18:02:21.894Z,1000.54
2016-04-05T18:03:21.929Z,1000.56
2016-04-05T18:04:21.837Z,1000.6
2016-04-05T18:05:21.825Z,1000.6
2016-04-05T18:06:22.139Z,1000.63
2016-04-05T18:07:21.783Z,1000.64
2016-04-05T18:08:21.738Z,1000.62
2016-04-05T18:09:21.725Z,1000.63
2016-04-05T18:10:21.693Z,1000.62
2016-04-05T18:11:21.727Z,1000.63
2016-04-05T18:12:21.651Z,1000.66
2016-04-05T18:13:21.686Z,1000.66
2016-04-05T18:14:21.610Z,1000.67
2016-04-05T18:15:21.581Z,1000.68
2016-04-05T18:16:21.568Z,1000.7
2016-04-05T18:17:21.539Z,1000.68
2016-04-05T18:18:21.823Z,1000.71
2016-04-05T18:19:21.498Z,1000.76
2016-04-05T18:20:21.469Z,1000.78
2016-04-05T18:21:21.456Z,1000.8
2016-04-05T18:22:21.427Z,1000.8
2016-04-05T18:23:21.399Z,1000.78
2016-04-05T18:24:21.371Z,1000.79
2016-04-05T18:25:21.342Z,1000.8
2016-04-05T18:26:21.329Z,1000.83
2016-04-05T18:27:21.300Z,1000.87
2016-04-05T18:28:21.287Z,1000.92
2016-04-05T18:29:21.493Z,1000.94
2016-04-05T18:30:21.278Z,1000.96
2016-04-05T18:31:21.217Z,1000.97
2016-04-05T18:32:21.205Z,1001
2016-04-05T18:33:21.176Z,1000.97
2016-04-05T18:34:21.132Z,1000.98
2016-04-05T18:35:21.134Z,1001
2016-04-05T18:36:21.106Z,1001.02
2016-04-05T18:37:21.078Z,1001.02
2016-04-05T18:38:21.050Z,1001.05
2016-04-05T18:39:21.021Z,1001.08
2016-04-05T18:40:21.008Z,1001.1
2016-04-05T18:41:20.979Z,1001.1
2016-04-05T18:42:20.950Z,1001.07
2016-04-05T18:43:21.063Z,1001.11
2016-04-05T18:44:20.908Z,1001.14
2016-04-05T18:45:20.880Z,1001.16
2016-04-05T18:46:20.867Z,1001.1
2016-04-05T18:47:20.870Z,1001.16
2016-04-05T18:48:20.842Z,1001.15
2016-04-05T18:49:20.829Z,1001.19
2016-04-05T18:50:20.785Z,1001.21
2016-04-05T18:51:20.740Z,1001.2
2016-04-05T18:52:20.727Z,1001.22
2016-04-05T18:53:20.760Z,1001.2
2016-04-05T18:54:20.717Z,1001.22
2016-04-05T18:55:20.657Z,1001.26
2016-04-05T18:56:20.660Z,1001.27
2016-04-05T18:57:20.616Z,1001.25
2016-04-05T18:58:20.587Z,1001.31
2016-04-05T18:59:20.574Z,1001.3
2016-04-05T19:00:20.545Z,1001.34
2016-04-05T19:01:20.517Z,1001.38
2016-04-05T19:02:20.504Z,1001.38
2016-04-05T19:04:20.453Z,1001.41
2016-04-05T19:05:20.626Z,1001.42
2016-04-05T19:06:20.551Z,1001.37
2016-04-05T19:07:20.381Z,1001.45
2016-04-05T19:08:20.411Z,1001.39
2016-04-05T19:09:20.335Z,1001.4
2016-04-05T19:11:20.294Z,1001.37
2016-04-05T19:12:20.266Z,1001.38
2016-04-05T19:13:20.315Z,1001.44
2016-04-05T19:14:20.209Z,1001.41
2016-04-05T19:16:20.167Z,1001.46
2016-04-05T19:17:20.138Z,1001.46
2016-04-05T19:18:20.125Z,1001.43
2016-04-05T19:19:20.096Z,1001.45
2016-04-05T19:20:20.130Z,1001.43
2016-04-05T19:21:20.071Z,1001.38
2016-04-05T19:22:20.026Z,1001.36
2016-04-05T19:23:20.014Z,1001.37
2016-04-05T19:24:19.985Z,1001.33
2016-04-05T19:25:20.082Z,1001.35
2016-04-05T19:26:19.990Z,1001.32
2016-04-05T19:27:19.915Z,1001.27
2016-04-05T19:28:19.902Z,1001.33
2016-04-05T19:29:19.889Z,1001.34
2016-04-05T19:30:19.861Z,1001.37
2016-04-05T19:31:19.942Z,1001.39
2016-04-05T19:32:19.851Z,1001.37
2016-04-05T19:33:19.775Z,1001.42
2016-04-05T19:34:19.778Z,1001.41
2016-04-05T19:35:19.718Z,1001.44
2016-04-05T19:36:19.705Z,1001.43
2016-04-05T19:37:19.708Z,1001.5
2016-04-05T19:38:19.741Z,1001.52
2016-04-05T19:39:19.729Z,1001.5
2016-04-05T19:40:19.606Z,1001.46
2016-04-05T19:41:19.594Z,1001.46
2016-04-05T19:42:19.611Z,1001.44
2016-04-05T19:43:19.552Z,1001.45
2016-04-05T19:44:19.523Z,1001.45
2016-04-05T19:45:19.494Z,1001.46
2016-04-05T19:46:19.466Z,1001.48
2016-04-05T19:47:22.765Z,1001.49
2016-04-05T19:48:19.455Z,1001.54
2016-04-05T19:49:19.475Z,1001.58
2016-04-05T19:50:19.383Z,1001.52
2016-04-05T19:51:19.355Z,1001.59
2016-04-05T19:52:20.749Z,1001.64
2016-04-05T19:53:19.313Z,1001.64
2016-04-05T19:54:19.363Z,1001.68
2016-04-05T19:55:19.256Z,1001.68
2016-04-05T19:56:19.306Z,1001.67
2016-04-05T19:57:19.230Z,1001.7
2016-04-05T19:58:19.186Z,1001.68
2016-04-05T19:59:19.188Z,1001.71
2016-04-05T20:00:19.176Z,1001.72
2016-04-05T20:01:19.116Z,1001.74
2016-04-05T20:02:19.087Z,1001.73
2016-04-05T20:03:19.074Z,1001.74
2016-04-05T20:04:19.045Z,1001.69
2016-04-05T20:05:19.173Z,1001.73
2016-04-05T20:06:19.551Z,1001.74
2016-04-05T20:07:18.992Z,1001.75
2016-04-05T20:08:18.948Z,1001.77
2016-04-05T20:09:19.012Z,1001.77
2016-04-05T20:10:18.926Z,1001.73
2016-04-05T20:11:18.897Z,1001.79
2016-04-05T20:12:19.103Z,1001.79
2016-04-05T20:13:18.872Z,1001.82
2016-04-05T20:14:18.812Z,1001.83
2016-04-05T20:15:18.800Z,1001.82
2016-04-05T20:16:18.771Z,1001.86
2016-04-05T20:17:19.055Z,1001.87
2016-04-05T20:18:18.713Z,1001.92
2016-04-05T20:19:18.685Z,1001.9
2016-04-05T20:20:18.671Z,1001.92
2016-04-05T20:21:18.659Z,1001.94
2016-04-05T20:22:18.630Z,1001.97
2016-04-05T20:23:18.617Z,1001.93
2016-04-05T20:24:18.652Z,1001.93
2016-04-05T20:25:18.545Z,1001.95
2016-04-05T20:26:18.532Z,1001.92
2016-04-05T20:27:18.503Z,1001.97
2016-04-05T20:28:18.474Z,1002
2016-04-05T20:29:18.462Z,1002.02
2016-04-05T20:30:18.479Z,1002.04
2016-04-05T20:31:18.420Z,1002.01
2016-04-05T20:32:18.391Z,1002.04
2016-04-05T20:33:18.378Z,1002.01
2016-04-05T20:34:18.350Z,1001.99
2016-04-05T20:35:18.306Z,1001.98
2016-04-05T20:36:18.309Z,1001.97
2016-04-05T20:37:18.296Z,1001.99
2016-04-05T20:38:18.251Z,1002.02
2016-04-05T20:39:18.239Z,1002.01
2016-04-05T20:40:18.211Z,1002.02
2016-04-05T20:41:18.167Z,1002.03
2016-04-05T20:42:18.216Z,1002.07
2016-04-05T20:43:18.125Z,1002.05
2016-04-05T20:44:18.096Z,1002.11
2016-04-05T20:45:18.083Z,1002.13
2016-04-05T20:46:18.039Z,1002.11
2016-04-05T20:47:18.041Z,1002.05
2016-04-05T20:48:18.013Z,1002.08
2016-04-05T20:49:18.020Z,1002.1
2016-04-05T20:50:17.976Z,1002.09
2016-04-05T20:51:17.916Z,1002.11
2016-04-05T20:52:17.903Z,1002.1
2016-04-05T20:53:17.891Z,1002.1
2016-04-05T20:54:17.862Z,1002.11
2016-04-05T20:55:17.834Z,1002.14
2016-04-05T20:56:17.820Z,1002.11
2016-04-05T20:57:17.788Z,1002.12
2016-04-05T20:58:17.848Z,1002.12
2016-04-05T20:59:17.876Z,1002.09
2016-04-05T21:00:17.904Z,1002.05
2016-04-05T21:01:17.932Z,1002.07
2016-04-05T21:02:18.014Z,1002.06
2016-04-05T21:04:17.953Z,1002.09
2016-04-05T21:05:17.930Z,1002.05
2016-04-05T21:06:17.964Z,1002.11
2016-04-05T21:07:18.449Z,1002.09
2016-04-05T21:08:18.092Z,1002.09
2016-04-05T21:09:17.930Z,1002.06
2016-04-05T21:10:17.893Z,1002.13
2016-04-05T21:11:17.856Z,1002.11